LVNO2: Poteau River At Loving, OK
Data processed at Wed 29Mar2023 04:02 GMT
All information presented herein is the property of the government of the United States of America and may be revised or deleted at any time without prior notice.
Dissemination of this information without the expressed written consent of the Public Affairs Office, Tulsa District U.S. Army Corps of Engineers is strictly prohibited.
These data are gathered electronically and, as presented, have not undergone any form of quality control. These data are not guaranteed to be valid or correct.
Go to home page.
Go to station list.
Upstream stations:
Downstream station:Previous Day
Next Day
Current Day
SHEF ID: LVNO2 Poteau River at Loving, OK
STATION TYPE:
Regulating: Stage = 20.00, Flow = 4523
STAGE RIV-FLOW
ft cfs
Ccp-Rev Ccp-Rev
(US/Central)
03/28 00:00 12.81 1023
03/28 01:00 12.79 1016
03/28 02:00 12.75 1000
03/28 03:00 12.72 989
03/28 04:00 12.70 981
03/28 05:00 12.69 977
03/28 06:00 12.65 961
03/28 07:00 12.64 957
03/28 08:00 12.61 946
03/28 09:00 12.57 930
03/28 10:00 12.56 926
03/28 11:00 12.54 919
03/28 12:00 12.51 907
03/28 13:00 12.48 896
03/28 14:00 12.47 892
03/28 15:00 12.46 889
03/28 16:00 12.44 881
03/28 17:00 12.44 881
03/28 18:00 12.43 877
03/28 19:00 12.39 863
03/28 20:00 12.38 859
03/28 21:00 12.35 848
03/28 22:00 12.30 830
03/28 23:00 ---- ----